This is the latest recevied weather packets stored in our database for station/object W4SMH. If no packets are shown the sender has not sent any weather packets the latest 10 day(s).
| Time | Temp. | Humidity | Pressure | Rain* | Wind** | Luminosity | Snow |
|---|---|---|---|---|---|---|---|
| 1778012661 | 13.89° C | 40% | 1006.8 hPa | 0 mm | - | 647 W/m² | - |
| 1778012166 | 11.11° C | 75% | 1002.6 hPa | 0 mm | - | 0 W/m² | - |
| 1778011732 | 13.89° C | 43% | 1007.1 hPa | 0 mm | - | 497 W/m² | - |
| 1778011672 | 13.89° C | 39% | 1007 hPa | 0 mm | - | 397 W/m² | - |
| 1778011490 | 13.89° C | 40% | 1007.1 hPa | 0 mm | - | 664 W/m² | - |
| 1778011170 | 13.89° C | 41% | 1007.3 hPa | 0 mm | - | 459 W/m² | - |
| 1778010785 | 13.89° C | 43% | 1007.2 hPa | 0 mm | - | 571 W/m² | - |
| 1778009911 | 13.33° C | 43% | 1007.3 hPa | 0 mm | - | 754 W/m² | - |
| 1778009641 | 13.33° C | 42% | 1007.2 hPa | 0 mm | - | 679 W/m² | - |
| 1778009264 | 13.33° C | 40% | 1007.4 hPa | 0 mm | - | 570 W/m² | - |
| 1778008541 | 13.33° C | 44% | 1007.3 hPa | 0 mm | - | 522 W/m² | - |
| 1778007910 | 13.33° C | 38% | 1007.3 hPa | 0 mm | - | 519 W/m² | - |
| 1778007794 | 13.33° C | 38% | 1007.2 hPa | 0 mm | - | 687 W/m² | - |
| 1778007005 | 13.33° C | 41% | 1007.1 hPa | 0 mm | - | 742 W/m² | - |
| 1778006664 | 13.33° C | 37% | 1007.1 hPa | 0 mm | - | 844 W/m² | - |
| 1778006587 | 13.33° C | 40% | 1007.1 hPa | 0 mm | - | 939 W/m² | - |
| 1778006147 | 12.78° C | 41% | 1007 hPa | 0 mm | - | 596 W/m² | - |
| 1778006090 | 12.78° C | 38% | 1007 hPa | 0 mm | - | 512 W/m² | - |
| 1778004621 | 12.78° C | 40% | 1006.8 hPa | 0 mm | - | 594 W/m² | - |
| 1778004557 | 12.78° C | 42% | 1006.7 hPa | 0 mm | - | 538 W/m² | - |
| 1778004027 | 12.78° C | 45% | 1006.8 hPa | 0 mm | - | 729 W/m² | - |
| 1778003999 | 12.78° C | 44% | 1006.8 hPa | 0 mm | - | 606 W/m² | - |
| 1778003620 | 12.22° C | 45% | 1006.7 hPa | 0 mm | - | 594 W/m² | - |
| 1778003593 | 12.22° C | 43% | 1006.8 hPa | 0 mm | - | 640 W/m² | - |
| 1778003506 | 12.22° C | 43% | 1006.6 hPa | 0 mm | - | 740 W/m² | - |
* Rain latest hour (hover to see other rain measurements)
** Current wind speed in m/s (hover to see current wind gust speed)